sensor_id;sensor_type;location;lat;lon;timestamp;pressure;altitude;pressure_sealevel;temperature;humidity
61010;BME280;46897;55.340;86.082;2023-05-21T11:50:10;100070.78;;;29.18;26.56
61010;BME280;46897;55.340;86.082;2023-05-21T11:52:40;100064.69;;;29.01;26.87
61010;BME280;46897;55.340;86.082;2023-05-21T11:55:28;100067.19;;;28.66;26.76
61010;BME280;46897;55.340;86.082;2023-05-21T11:57:58;100063.41;;;28.08;27.20
61010;BME280;46897;55.340;86.082;2023-05-21T12:00:28;100065.84;;;27.56;27.60
61010;BME280;46897;55.340;86.082;2023-05-21T12:05:48;100081.13;;;27.03;27.63
61010;BME280;46897;55.340;86.082;2023-05-21T12:08:21;100063.94;;;26.79;27.73
61010;BME280;46897;55.340;86.082;2023-05-21T12:10:55;100078.50;;;26.78;27.79
61010;BME280;46897;55.340;86.082;2023-05-21T12:13:26;100068.09;;;27.21;27.60
61010;BME280;46897;55.340;86.082;2023-05-21T12:15:56;100073.69;;;27.97;27.73
61010;BME280;46897;55.340;86.082;2023-05-21T12:18:44;100079.41;;;28.55;27.15
61010;BME280;46897;55.340;86.082;2023-05-21T12:21:14;100065.69;;;28.78;26.74
61010;BME280;46897;55.340;86.082;2023-05-21T12:23:44;100069.25;;;28.64;27.09
61010;BME280;46897;55.340;86.082;2023-05-21T12:26:31;100069.97;;;28.88;26.72
61010;BME280;46897;55.340;86.082;2023-05-21T12:29:20;100064.78;;;29.44;26.81
61010;BME280;46897;55.340;86.082;2023-05-21T12:31:49;100058.59;;;30.00;26.24
61010;BME280;46897;55.340;86.082;2023-05-21T12:34:37;100066.03;;;30.83;26.00
61010;BME280;46897;55.340;86.082;2023-05-21T12:37:09;100071.47;;;31.31;25.93
61010;BME280;46897;55.340;86.082;2023-05-21T12:40:47;100085.06;;;32.19;25.14
61010;BME280;46897;55.340;86.082;2023-05-21T12:52:22;100086.44;;;32.75;24.78
61010;BME280;46897;55.340;86.082;2023-05-21T12:59:42;100009.94;;;28.59;26.29
61010;BME280;46897;55.340;86.082;2023-05-21T13:05:15;100095.91;;;28.83;26.58
61010;BME280;46897;55.340;86.082;2023-05-21T13:08:02;100085.41;;;28.80;26.36
61010;BME280;46897;55.340;86.082;2023-05-21T13:10:31;100090.13;;;28.57;26.48
61010;BME280;46897;55.340;86.082;2023-05-21T13:13:01;100096.72;;;28.24;26.60
61010;BME280;46897;55.340;86.082;2023-05-21T13:15:32;100097.22;;;27.90;27.33
61010;BME280;46897;55.340;86.082;2023-05-21T13:18:02;100081.78;;;27.82;27.37
61010;BME280;46897;55.340;86.082;2023-05-21T13:20:33;100100.50;;;28.00;27.16
61010;BME280;46897;55.340;86.082;2023-05-21T13:23:03;100098.56;;;28.09;27.26
61010;BME280;46897;55.340;86.082;2023-05-21T13:25:35;100097.75;;;28.09;27.08
61010;BME280;46897;55.340;86.082;2023-05-21T13:28:05;100100.59;;;27.92;27.04
61010;BME280;46897;55.340;86.082;2023-05-21T13:33:25;100105.06;;;26.99;27.88
61010;BME280;46897;55.340;86.082;2023-05-21T13:35:55;99983.31;;;25.60;28.14
61010;BME280;46897;55.340;86.082;2023-05-21T13:41:12;100112.88;;;25.48;28.39
61010;BME280;46897;55.340;86.082;2023-05-21T13:43:41;100064.38;;;24.69;28.72
61010;BME280;46897;55.340;86.082;2023-05-21T13:49:17;100110.75;;;24.22;29.30
61010;BME280;46897;55.340;86.082;2023-05-21T13:52:06;100110.31;;;23.91;29.44
61010;BME280;46897;55.340;86.082;2023-05-21T13:54:35;100056.06;;;23.30;29.67
61010;BME280;46897;55.340;86.082;2023-05-21T13:57:23;100115.16;;;23.33;29.82
61010;BME280;46897;55.340;86.082;2023-05-21T14:00:12;100123.72;;;23.01;30.03
61010;BME280;46897;55.340;86.082;2023-05-21T14:02:43;100093.25;;;22.53;30.30
61010;BME280;46897;55.340;86.082;2023-05-21T14:05:14;100106.94;;;22.32;30.39
61010;BME280;46897;55.340;86.082;2023-05-21T14:10:32;100105.28;;;21.63;30.82
61010;BME280;46897;55.340;86.082;2023-05-21T14:13:02;99989.31;;;20.77;31.01
61010;BME280;46897;55.340;86.082;2023-05-21T14:16:03;100120.09;;;21.28;31.35
61010;BME280;46897;55.340;86.082;2023-05-21T14:18:35;100104.09;;;20.76;31.66
61010;BME280;46897;55.340;86.082;2023-05-21T14:21:04;100093.59;;;20.64;31.86
61010;BME280;46897;55.340;86.082;2023-05-21T14:23:34;100044.03;;;20.04;32.00
61010;BME280;46897;55.340;86.082;2023-05-21T14:26:06;100103.41;;;20.22;32.42
61010;BME280;46897;55.340;86.082;2023-05-21T14:28:36;100135.03;;;20.19;32.54
61010;BME280;46897;55.340;86.082;2023-05-21T14:33:54;100138.81;;;19.74;32.77
61010;BME280;46897;55.340;86.082;2023-05-21T14:36:23;100134.72;;;19.48;32.92
61010;BME280;46897;55.340;86.082;2023-05-21T14:38:52;100128.56;;;19.24;33.18
61010;BME280;46897;55.340;86.082;2023-05-21T14:41:40;100144.28;;;19.18;33.25
61010;BME280;46897;55.340;86.082;2023-05-21T14:44:09;100149.09;;;19.03;33.63
61010;BME280;46897;55.340;86.082;2023-05-21T14:46:38;100089.47;;;18.54;33.90
61010;BME280;46897;55.340;86.082;2023-05-21T14:49:27;100155.75;;;18.75;34.51
61010;BME280;46897;55.340;86.082;2023-05-21T14:52:15;100159.53;;;18.61;34.59
61010;BME280;46897;55.340;86.082;2023-05-21T14:55:01;100147.19;;;18.36;34.53
61010;BME280;46897;55.340;86.082;2023-05-21T14:57:30;100159.25;;;18.30;34.74
61010;BME280;46897;55.340;86.082;2023-05-21T15:02:46;100160.50;;;18.02;35.39
61010;BME280;46897;55.340;86.082;2023-05-21T15:05:17;100126.97;;;17.61;36.00
61010;BME280;46897;55.340;86.082;2023-05-21T15:08:05;100163.53;;;17.73;36.33
61010;BME280;46897;55.340;86.082;2023-05-21T15:10:36;100132.97;;;17.40;36.19
61010;BME280;46897;55.340;86.082;2023-05-21T15:13:05;100155.84;;;17.44;36.66
61010;BME280;46897;55.340;86.082;2023-05-21T15:18:24;100181.47;;;17.23;36.80
61010;BME280;46897;55.340;86.082;2023-05-21T15:23:45;100164.84;;;16.81;37.03
61010;BME280;46897;55.340;86.082;2023-05-21T15:26:14;100143.25;;;16.58;37.40
61010;BME280;46897;55.340;86.082;2023-05-21T15:28:43;100067.50;;;15.95;37.53
61010;BME280;46897;55.340;86.082;2023-05-21T15:31:13;100188.78;;;16.57;37.66
61010;BME280;46897;55.340;86.082;2023-05-21T15:37:08;100173.69;;;16.17;37.67
61010;BME280;46897;55.340;86.082;2023-05-21T15:39:37;100189.72;;;16.17;37.89
61010;BME280;46897;55.340;86.082;2023-05-21T15:42:07;100124.97;;;15.61;38.20
61010;BME280;46897;55.340;86.082;2023-05-21T15:44:36;100195.44;;;15.98;38.34
61010;BME280;46897;55.340;86.082;2023-05-21T15:47:06;100188.13;;;15.87;38.69
61010;BME280;46897;55.340;86.082;2023-05-21T15:49:35;100092.91;;;15.21;38.72
61010;BME280;46897;55.340;86.082;2023-05-21T15:52:05;100168.03;;;15.54;39.02
61010;BME280;46897;55.340;86.082;2023-05-21T15:54:54;100193.53;;;15.59;39.47
61010;BME280;46897;55.340;86.082;2023-05-21T15:57:23;100102.66;;;14.93;39.58
61010;BME280;46897;55.340;86.082;2023-05-21T15:59:53;100076.84;;;14.66;39.67
61010;BME280;46897;55.340;86.082;2023-05-21T16:02:23;100168.97;;;15.12;39.83
61010;BME280;46897;55.340;86.082;2023-05-21T16:04:52;100036.50;;;14.15;39.91
61010;BME280;46897;55.340;86.082;2023-05-21T16:07:22;100083.84;;;14.39;40.51
61010;BME280;46897;55.340;86.082;2023-05-21T16:10:10;100185.56;;;14.88;40.64
61010;BME280;46897;55.340;86.082;2023-05-21T16:12:40;100195.09;;;14.78;40.52
61010;BME280;46897;55.340;86.082;2023-05-21T16:15:09;100193.09;;;14.67;40.59
61010;BME280;46897;55.340;86.082;2023-05-21T16:17:39;100110.56;;;14.08;41.13
61010;BME280;46897;55.340;86.082;2023-05-21T16:20:08;99996.00;;;13.21;41.13
61010;BME280;46897;55.340;86.082;2023-05-21T16:22:38;100111.72;;;13.88;41.08
61010;BME280;46897;55.340;86.082;2023-05-21T16:25:10;100163.66;;;14.10;41.10
61010;BME280;46897;55.340;86.082;2023-05-21T16:27:39;100087.75;;;13.44;41.50
61010;BME280;46897;55.340;86.082;2023-05-21T16:30:09;100194.00;;;14.07;41.56
61010;BME280;46897;55.340;86.082;2023-05-21T16:32:40;100090.16;;;13.32;41.66
61010;BME280;46897;55.340;86.082;2023-05-21T16:35:09;100088.63;;;13.12;41.94
61010;BME280;46897;55.340;86.082;2023-05-21T16:37:38;100127.69;;;13.42;41.91
61010;BME280;46897;55.340;86.082;2023-05-21T16:42:57;100177.44;;;13.40;42.73
61010;BME280;46897;55.340;86.082;2023-05-21T16:45:34;100123.31;;;12.93;43.05
61010;BME280;46897;55.340;86.082;2023-05-21T16:48:07;100171.59;;;13.17;42.73
61010;BME280;46897;55.340;86.082;2023-05-21T16:50:55;100156.03;;;12.94;42.87
61010;BME280;46897;55.340;86.082;2023-05-21T16:53:24;100051.75;;;12.43;42.86
61010;BME280;46897;55.340;86.082;2023-05-21T16:55:54;100099.63;;;12.57;42.73
61010;BME280;46897;55.340;86.082;2023-05-21T16:58:24;100211.91;;;13.26;42.66
61010;BME280;46897;55.340;86.082;2023-05-21T17:00:54;100232.50;;;13.38;43.10
61010;BME280;46897;55.340;86.082;2023-05-21T17:03:24;100140.16;;;12.76;42.93
61010;BME280;46897;55.340;86.082;2023-05-21T17:11:30;100077.91;;;12.17;43.36
61010;BME280;46897;55.340;86.082;2023-05-21T17:14:00;100123.56;;;12.39;43.81
61010;BME280;46897;55.340;86.082;2023-05-21T17:16:30;100194.56;;;12.69;43.94
61010;BME280;46897;55.340;86.082;2023-05-21T17:18:59;100143.72;;;12.26;44.26
61010;BME280;46897;55.340;86.082;2023-05-21T17:21:29;100208.81;;;12.51;44.21
61010;BME280;46897;55.340;86.082;2023-05-21T17:23:58;100060.91;;;11.51;44.26
61010;BME280;46897;55.340;86.082;2023-05-21T17:26:28;100231.00;;;12.50;44.28
61010;BME280;46897;55.340;86.082;2023-05-21T17:28:57;100176.06;;;12.17;44.58
61010;BME280;46897;55.340;86.082;2023-05-21T17:31:46;100216.78;;;12.33;45.02
61010;BME280;46897;55.340;86.082;2023-05-21T17:34:16;100082.63;;;11.40;44.60
61010;BME280;46897;55.340;86.082;2023-05-21T17:36:46;100172.50;;;11.81;44.92
61010;BME280;46897;55.340;86.082;2023-05-21T17:39:15;100159.06;;;11.67;45.30
61010;BME280;46897;55.340;86.082;2023-05-21T17:41:44;100062.38;;;11.03;45.45
61010;BME280;46897;55.340;86.082;2023-05-21T17:44:14;100200.34;;;11.73;45.42
61010;BME280;46897;55.340;86.082;2023-05-21T17:46:44;100146.47;;;11.36;45.52
61010;BME280;46897;55.340;86.082;2023-05-21T17:49:15;100199.81;;;11.65;45.52
61010;BME280;46897;55.340;86.082;2023-05-21T17:51:44;100204.03;;;11.51;45.78
61010;BME280;46897;55.340;86.082;2023-05-21T17:54:32;100234.56;;;11.77;46.29
61010;BME280;46897;55.340;86.082;2023-05-21T17:57:02;100200.88;;;11.43;45.95
61010;BME280;46897;55.340;86.082;2023-05-21T17:59:31;100256.59;;;11.60;46.01
61010;BME280;46897;55.340;86.082;2023-05-21T18:02:00;100243.28;;;11.43;46.06
61010;BME280;46897;55.340;86.082;2023-05-21T18:04:31;100118.84;;;10.66;46.70
61010;BME280;46897;55.340;86.082;2023-05-21T18:07:01;100187.66;;;11.05;46.35
61010;BME280;46897;55.340;86.082;2023-05-21T18:09:30;100040.28;;;10.08;46.43
61010;BME280;46897;55.340;86.082;2023-05-21T18:17:51;100202.09;;;10.98;46.48
61010;BME280;46897;55.340;86.082;2023-05-21T18:20:22;100181.56;;;10.84;46.92
61010;BME280;46897;55.340;86.082;2023-05-21T18:22:51;100110.84;;;10.07;46.83
61010;BME280;46897;55.340;86.082;2023-05-21T18:25:21;100117.09;;;10.25;47.10
61010;BME280;46897;55.340;86.082;2023-05-21T18:28:07;100223.13;;;10.82;47.37
61010;BME280;46897;55.340;86.082;2023-05-21T18:33:42;100229.56;;;10.76;47.38
61010;BME280;46897;55.340;86.082;2023-05-21T18:36:30;100085.94;;;9.72;47.36
61010;BME280;46897;55.340;86.082;2023-05-21T18:39:05;100231.03;;;10.63;46.58
61010;BME280;46897;55.340;86.082;2023-05-21T18:41:34;100110.84;;;9.87;47.10
61010;BME280;46897;55.340;86.082;2023-05-21T18:44:04;100177.09;;;10.24;47.21
61010;BME280;46897;55.340;86.082;2023-05-21T18:46:34;100229.94;;;10.47;47.69
61010;BME280;46897;55.340;86.082;2023-05-21T18:49:04;100063.50;;;9.39;47.82
61010;BME280;46897;55.340;86.082;2023-05-21T18:51:35;100227.78;;;10.36;48.14
61010;BME280;46897;55.340;86.082;2023-05-21T18:59:40;100228.47;;;10.19;48.35
61010;BME280;46897;55.340;86.082;2023-05-21T19:02:27;100230.44;;;10.14;48.48
61010;BME280;46897;55.340;86.082;2023-05-21T19:04:56;100207.59;;;9.91;48.64
61010;BME280;46897;55.340;86.082;2023-05-21T19:07:27;100237.97;;;10.02;49.12
61010;BME280;46897;55.340;86.082;2023-05-21T19:10:13;100058.78;;;9.03;48.76
61010;BME280;46897;55.340;86.082;2023-05-21T19:13:00;100111.78;;;9.21;49.07
61010;BME280;46897;55.340;86.082;2023-05-21T19:15:46;100138.81;;;9.28;49.04
61010;BME280;46897;55.340;86.082;2023-05-21T19:18:34;100224.72;;;9.82;49.68
61010;BME280;46897;55.340;86.082;2023-05-21T19:21:03;100180.22;;;9.49;49.48
61010;BME280;46897;55.340;86.082;2023-05-21T19:23:34;100212.03;;;9.46;49.47
61010;BME280;46897;55.340;86.082;2023-05-21T19:26:19;100232.63;;;9.60;49.44
61010;BME280;46897;55.340;86.082;2023-05-21T19:28:49;100206.88;;;9.43;49.95
61010;BME280;46897;55.340;86.082;2023-05-21T19:31:20;100183.16;;;9.19;50.08
61010;BME280;46897;55.340;86.082;2023-05-21T19:33:50;100144.38;;;8.74;50.21
61010;BME280;46897;55.340;86.082;2023-05-21T19:36:20;100210.28;;;9.23;50.55
61010;BME280;46897;55.340;86.082;2023-05-21T19:39:09;100228.38;;;9.34;50.74
61010;BME280;46897;55.340;86.082;2023-05-21T19:41:38;100210.59;;;9.15;50.89
61010;BME280;46897;55.340;86.082;2023-05-21T19:46:55;100116.44;;;8.45;50.87
61010;BME280;46897;55.340;86.082;2023-05-21T19:49:25;100248.59;;;9.11;50.86
61010;BME280;46897;55.340;86.082;2023-05-21T19:52:29;100238.25;;;9.05;51.50
61010;BME280;46897;55.340;86.082;2023-05-21T19:55:18;100238.50;;;8.99;51.14
61010;BME280;46897;55.340;86.082;2023-05-21T19:57:47;100142.16;;;8.38;51.05
61010;BME280;46897;55.340;86.082;2023-05-21T20:00:35;100236.38;;;8.85;51.50
61010;BME280;46897;55.340;86.082;2023-05-21T20:03:05;100133.16;;;8.19;51.39
61010;BME280;46897;55.340;86.082;2023-05-21T20:05:36;100189.44;;;8.44;51.42
61010;BME280;46897;55.340;86.082;2023-05-21T20:08:06;100237.78;;;8.70;51.79
61010;BME280;46897;55.340;86.082;2023-05-21T20:10:36;100229.88;;;8.70;51.54
61010;BME280;46897;55.340;86.082;2023-05-21T20:13:07;100090.50;;;7.57;51.92
61010;BME280;46897;55.340;86.082;2023-05-21T20:15:53;100138.16;;;8.01;51.99
61010;BME280;46897;55.340;86.082;2023-05-21T20:18:23;100100.38;;;7.77;51.95
61010;BME280;46897;55.340;86.082;2023-05-21T20:23:40;100121.69;;;7.70;51.71
61010;BME280;46897;55.340;86.082;2023-05-21T20:26:10;100083.63;;;7.26;52.45
61010;BME280;46897;55.340;86.082;2023-05-21T20:28:40;100105.91;;;7.43;52.42
61010;BME280;46897;55.340;86.082;2023-05-21T20:31:09;100138.16;;;7.76;52.24
61010;BME280;46897;55.340;86.082;2023-05-21T20:33:39;100127.38;;;7.57;52.50
61010;BME280;46897;55.340;86.082;2023-05-21T20:36:08;100231.56;;;8.21;52.57
61010;BME280;46897;55.340;86.082;2023-05-21T20:38:42;100228.22;;;8.16;53.10
61010;BME280;46897;55.340;86.082;2023-05-21T20:41:13;100189.75;;;7.83;52.97
61010;BME280;46897;55.340;86.082;2023-05-21T20:43:42;100186.34;;;7.80;53.07
61010;BME280;46897;55.340;86.082;2023-05-21T20:46:12;100201.53;;;7.72;53.09
61010;BME280;46897;55.340;86.082;2023-05-21T20:49:16;100239.34;;;7.97;53.14
61010;BME280;46897;55.340;86.082;2023-05-21T20:52:03;100210.34;;;7.71;53.02
61010;BME280;46897;55.340;86.082;2023-05-21T20:54:32;100189.69;;;7.58;53.12
61010;BME280;46897;55.340;86.082;2023-05-21T20:57:21;100232.81;;;7.82;53.41
61010;BME280;46897;55.340;86.082;2023-05-21T21:00:09;100200.22;;;7.58;53.04
61010;BME280;46897;55.340;86.082;2023-05-21T21:05:48;100128.09;;;7.07;53.28
61010;BME280;46897;55.340;86.082;2023-05-21T21:08:17;100068.34;;;6.53;53.77
61010;BME280;46897;55.340;86.082;2023-05-21T21:10:46;100060.78;;;6.42;53.87
61010;BME280;46897;55.340;86.082;2023-05-21T21:13:17;100133.91;;;6.89;54.20
61010;BME280;46897;55.340;86.082;2023-05-21T21:16:05;100240.53;;;7.60;54.40
61010;BME280;46897;55.340;86.082;2023-05-21T21:21:41;100127.19;;;6.79;54.40
61010;BME280;46897;55.340;86.082;2023-05-21T21:24:10;100100.38;;;6.66;54.72
61010;BME280;46897;55.340;86.082;2023-05-21T21:26:39;100130.31;;;6.62;54.57
61010;BME280;46897;55.340;86.082;2023-05-21T21:29:10;100244.47;;;7.47;54.95
61010;BME280;46897;55.340;86.082;2023-05-21T21:31:56;100248.06;;;7.44;54.50
61010;BME280;46897;55.340;86.082;2023-05-21T21:34:44;100241.16;;;7.40;54.90
61010;BME280;46897;55.340;86.082;2023-05-21T21:37:31;100248.28;;;7.37;54.92
61010;BME280;46897;55.340;86.082;2023-05-21T21:40:19;100249.28;;;7.33;55.00
61010;BME280;46897;55.340;86.082;2023-05-21T21:42:48;100257.25;;;7.31;54.79
61010;BME280;46897;55.340;86.082;2023-05-21T21:45:19;100237.78;;;7.07;54.88
61010;BME280;46897;55.340;86.082;2023-05-21T21:47:48;100080.00;;;6.13;55.08
61010;BME280;46897;55.340;86.082;2023-05-21T21:50:17;100267.63;;;7.06;55.27
61010;BME280;46897;55.340;86.082;2023-05-21T21:52:46;100191.31;;;6.76;55.43
61010;BME280;46897;55.340;86.082;2023-05-21T21:55:34;100258.44;;;7.21;55.39
61010;BME280;46897;55.340;86.082;2023-05-21T21:58:04;100087.50;;;5.96;55.23
61010;BME280;46897;55.340;86.082;2023-05-21T22:00:35;100129.38;;;6.33;55.62
61010;BME280;46897;55.340;86.082;2023-05-21T22:03:21;100175.63;;;6.40;55.33
61010;BME280;46897;55.340;86.082;2023-05-21T22:05:50;100160.69;;;6.42;55.87
61010;BME280;46897;55.340;86.082;2023-05-21T22:08:20;100182.47;;;6.47;55.47
61010;BME280;46897;55.340;86.082;2023-05-21T22:11:08;100267.41;;;7.14;56.29
61010;BME280;46897;55.340;86.082;2023-05-21T22:13:38;100261.75;;;6.96;55.94
61010;BME280;46897;55.340;86.082;2023-05-21T22:16:26;100238.53;;;6.79;55.56
61010;BME280;46897;55.340;86.082;2023-05-21T22:18:55;100221.81;;;6.50;55.51
61010;BME280;46897;55.340;86.082;2023-05-21T22:21:25;100162.28;;;6.15;55.43
61010;BME280;46897;55.340;86.082;2023-05-21T22:23:55;100282.94;;;6.92;55.58
61010;BME280;46897;55.340;86.082;2023-05-21T22:26:24;100209.41;;;6.56;55.75
61010;BME280;46897;55.340;86.082;2023-05-21T22:28:54;100176.53;;;6.39;55.87
61010;BME280;46897;55.340;86.082;2023-05-21T22:31:26;100202.56;;;6.48;55.63
61010;BME280;46897;55.340;86.082;2023-05-21T22:36:45;100186.78;;;6.48;55.74
61010;BME280;46897;55.340;86.082;2023-05-21T22:39:14;100245.44;;;6.83;56.16
61010;BME280;46897;55.340;86.082;2023-05-21T22:42:00;100303.28;;;7.16;55.54
61010;BME280;46897;55.340;86.082;2023-05-21T22:44:30;100299.72;;;7.19;55.95
61010;BME280;46897;55.340;86.082;2023-05-21T22:47:00;100224.81;;;6.68;56.20
61010;BME280;46897;55.340;86.082;2023-05-21T22:49:30;100277.13;;;7.12;56.26
61010;BME280;46897;55.340;86.082;2023-05-21T22:52:00;100248.97;;;6.84;56.00
61010;BME280;46897;55.340;86.082;2023-05-21T22:54:32;100321.19;;;7.35;55.71
61010;BME280;46897;55.340;86.082;2023-05-21T22:57:01;100325.44;;;7.40;56.45
61010;BME280;46897;55.340;86.082;2023-05-21T22:59:31;100240.28;;;6.80;56.21
61010;BME280;46897;55.340;86.082;2023-05-21T23:02:02;100314.47;;;7.54;56.26
61010;BME280;46897;55.340;86.082;2023-05-21T23:04:49;100311.59;;;7.63;56.28
61010;BME280;46897;55.340;86.082;2023-05-21T23:07:19;100229.53;;;7.18;55.57
61010;BME280;46897;55.340;86.082;2023-05-21T23:09:48;100312.63;;;7.86;55.59
61010;BME280;46897;55.340;86.082;2023-05-21T23:12:18;100162.50;;;7.01;55.71
61010;BME280;46897;55.340;86.082;2023-05-21T23:15:05;100238.38;;;7.73;55.51
61010;BME280;46897;55.340;86.082;2023-05-21T23:17:38;100321.91;;;8.26;55.89
61010;BME280;46897;55.340;86.082;2023-05-21T23:20:08;100336.41;;;8.39;55.31
61010;BME280;46897;55.340;86.082;2023-05-21T23:22:37;100223.16;;;7.83;55.55
61010;BME280;46897;55.340;86.082;2023-05-21T23:25:07;100329.41;;;8.65;55.49
61010;BME280;46897;55.340;86.082;2023-05-21T23:30:24;100284.47;;;8.68;55.28
61010;BME280;46897;55.340;86.082;2023-05-21T23:32:55;100175.63;;;8.11;55.15
61010;BME280;46897;55.340;86.082;2023-05-21T23:35:24;100341.50;;;9.22;55.35
61010;BME280;46897;55.340;86.082;2023-05-21T23:37:54;100356.03;;;9.34;55.11
61010;BME280;46897;55.340;86.082;2023-05-21T23:40:23;100274.81;;;8.92;54.97
61010;BME280;46897;55.340;86.082;2023-05-21T23:42:52;100189.13;;;8.54;55.13
61010;BME280;46897;55.340;86.082;2023-05-21T23:45:40;100334.25;;;9.75;55.56
61010;BME280;46897;55.340;86.082;2023-05-21T23:48:11;100292.31;;;9.65;55.18
61010;BME280;46897;55.340;86.082;2023-05-21T23:50:40;100260.97;;;9.56;55.26
61010;BME280;46897;55.340;86.082;2023-05-21T23:53:09;100331.56;;;9.98;55.09
61010;BME280;46897;55.340;86.082;2023-05-21T23:55:57;100342.81;;;10.26;55.28
61010;BME280;46897;55.340;86.082;2023-05-21T23:58:26;100132.31;;;9.14;54.86
